createdAt,value
2022-11-04T00:02:05.518Z,2.17
2022-11-04T00:04:37.210Z,3.78
2022-11-04T00:07:23.836Z,1.70
2022-11-04T00:09:53.370Z,6.60
2022-11-04T00:12:25.845Z,2.70
2022-11-04T00:14:52.393Z,2.72
2022-11-04T00:17:25.224Z,2.75
2022-11-04T00:20:12.583Z,3.97
2022-11-04T00:22:59.811Z,3.80
2022-11-04T00:25:49.095Z,2.78
2022-11-04T00:28:41.269Z,3.75
2022-11-04T00:31:27.432Z,3.65
2022-11-04T00:34:26.169Z,2.93
2022-11-04T00:36:52.632Z,3.85
2022-11-04T00:39:19.133Z,6.28
2022-11-04T00:41:45.581Z,2.72
2022-11-04T00:44:12.123Z,4.10
2022-11-04T00:46:38.663Z,3.03
2022-11-04T00:49:45.625Z,5.03
2022-11-04T00:52:12.027Z,4.97
2022-11-04T00:54:38.546Z,2.45
2022-11-04T00:57:04.999Z,3.05
2022-11-04T00:59:40.675Z,6.60
2022-11-04T01:02:10.942Z,3.25
2022-11-04T01:04:37.508Z,3.35
2022-11-04T01:07:17.354Z,2.30
2022-11-04T01:09:43.952Z,4.00
2022-11-04T01:12:13.696Z,3.03
2022-11-04T01:14:40.457Z,3.17
2022-11-04T01:17:13.125Z,4.13
2022-11-04T01:19:39.667Z,3.75
2022-11-04T01:22:11.453Z,3.20
2022-11-04T01:24:38.418Z,3.87
2022-11-04T01:27:05.659Z,3.85
2022-11-04T01:29:32.445Z,3.15
2022-11-04T01:32:04.264Z,4.32
2022-11-04T01:34:30.862Z,5.90
2022-11-04T01:36:57.417Z,4.73
2022-11-04T01:39:24.454Z,2.90
2022-11-04T01:41:53.977Z,2.83
2022-11-04T01:44:53.963Z,3.25
2022-11-04T01:47:30.956Z,2.67
2022-11-04T01:50:06.421Z,3.63
2022-11-04T01:52:48.833Z,2.70
2022-11-04T01:55:36.214Z,3.75
2022-11-04T01:58:13.475Z,3.05
2022-11-04T02:00:42.520Z,1.85
2022-11-04T02:03:49.219Z,1.70
2022-11-04T02:06:20.139Z,3.95
2022-11-04T02:11:55.211Z,2.10
2022-11-04T02:14:21.707Z,1.25
2022-11-04T02:16:49.553Z,1.87
2022-11-04T02:19:39.823Z,2.28
2022-11-04T02:22:49.707Z,2.50
2022-11-04T02:26:10.879Z,2.05
2022-11-04T02:29:20.011Z,1.52
2022-11-04T02:32:11.250Z,1.40
2022-11-04T02:35:19.258Z,2.97
2022-11-04T02:40:29.406Z,1.70
2022-11-04T02:42:55.721Z,1.50
2022-11-04T02:45:30.836Z,3.47
2022-11-04T02:48:12.125Z,2.78
2022-11-04T02:50:46.807Z,2.03
2022-11-04T02:53:24.192Z,1.90
2022-11-04T02:55:55.275Z,1.42
2022-11-04T02:58:27.591Z,2.90
2022-11-04T03:00:57.264Z,1.88
2022-11-04T03:03:32.252Z,3.15
2022-11-04T03:06:01.255Z,2.10
2022-11-04T03:08:37.062Z,1.77
2022-11-04T03:11:11.394Z,2.20
2022-11-04T03:13:57.699Z,2.85
2022-11-04T03:16:31.947Z,2.85
2022-11-04T03:19:06.544Z,2.55
2022-11-04T03:21:41.761Z,2.55
2022-11-04T03:24:08.913Z,1.97
2022-11-04T03:27:09.590Z,2.63
2022-11-04T03:30:11.974Z,2.60
2022-11-04T03:32:44.992Z,4.50
2022-11-04T03:35:13.164Z,1.70
2022-11-04T03:37:39.812Z,5.17
2022-11-04T03:40:07.346Z,1.50
2022-11-04T03:42:50.810Z,2.17
2022-11-04T03:45:17.387Z,2.20
2022-11-04T03:48:06.068Z,2.97
2022-11-04T03:50:50.943Z,4.13
2022-11-04T03:53:22.762Z,1.77
2022-11-04T03:56:20.555Z,2.17
2022-11-04T03:59:25.812Z,1.52
2022-11-04T04:02:17.967Z,3.20
2022-11-04T04:05:02.468Z,2.23
2022-11-04T04:07:34.799Z,2.65
2022-11-04T04:10:39.201Z,4.97
2022-11-04T04:13:19.028Z,3.78
2022-11-04T04:15:57.661Z,3.33
2022-11-04T04:18:36.401Z,4.27
2022-11-04T04:21:42.740Z,4.32
2022-11-04T04:24:49.925Z,3.30
2022-11-04T04:27:33.576Z,6.45
2022-11-04T04:30:24.753Z,7.80
2022-11-04T04:33:14.067Z,9.27
2022-11-04T04:35:44.807Z,8.95
2022-11-04T04:38:41.585Z,9.30
2022-11-04T04:41:37.753Z,11.93
2022-11-04T04:44:44.393Z,10.77
2022-11-04T04:47:23.649Z,11.30
2022-11-04T04:49:55.387Z,10.13
2022-11-04T04:52:23.661Z,10.00
2022-11-04T04:54:50.474Z,10.77
2022-11-04T04:57:17.170Z,8.77
2022-11-04T04:59:55.131Z,9.93
2022-11-04T05:02:22.064Z,9.68
2022-11-04T05:04:48.793Z,11.18
2022-11-04T05:07:15.584Z,10.93
2022-11-04T05:09:45.178Z,9.13
2022-11-04T05:12:11.969Z,11.33
2022-11-04T05:14:39.406Z,11.27
2022-11-04T05:17:21.176Z,10.27
2022-11-04T05:19:47.949Z,10.57
2022-11-04T05:22:14.599Z,11.15
2022-11-04T05:24:46.299Z,10.63
2022-11-04T05:27:13.063Z,12.70
2022-11-04T05:29:39.631Z,15.18
2022-11-04T05:32:06.315Z,12.73
2022-11-04T05:34:33.249Z,12.95
2022-11-04T05:37:00.212Z,16.17
2022-11-04T05:39:27.066Z,13.27
2022-11-04T05:41:53.982Z,12.18
2022-11-04T05:44:20.565Z,13.52
2022-11-04T05:46:47.837Z,10.95
2022-11-04T05:49:17.528Z,15.27
2022-11-04T05:51:44.773Z,12.38
2022-11-04T05:54:13.856Z,13.90
2022-11-04T05:56:42.567Z,14.02
2022-11-04T05:59:09.645Z,11.32
2022-11-04T06:01:41.865Z,13.90
2022-11-04T06:04:21.099Z,13.85
2022-11-04T06:06:48.230Z,13.13
2022-11-04T06:09:15.360Z,13.48
2022-11-04T06:11:42.441Z,15.77
2022-11-04T06:14:10.281Z,13.53
2022-11-04T06:16:38.504Z,10.70
2022-11-04T06:19:08.624Z,11.85
2022-11-04T06:21:57.135Z,12.63
2022-11-04T06:24:24.356Z,12.45
2022-11-04T06:26:55.478Z,11.30
2022-11-04T06:29:24.142Z,13.05
2022-11-04T06:31:51.367Z,12.93
2022-11-04T06:34:27.656Z,9.77
2022-11-04T06:36:55.436Z,11.07
2022-11-04T06:39:49.382Z,10.60
2022-11-04T06:42:16.486Z,10.80
2022-11-04T06:44:43.358Z,8.55
2022-11-04T06:47:10.949Z,10.77
2022-11-04T06:49:38.247Z,8.90
2022-11-04T06:52:10.654Z,12.10
2022-11-04T06:54:39.889Z,7.53
2022-11-04T06:57:11.091Z,9.82
2022-11-04T06:59:41.250Z,11.93
2022-11-04T07:02:11.182Z,10.40
2022-11-04T07:04:38.245Z,9.70
2022-11-04T07:07:08.468Z,10.98
2022-11-04T07:09:43.491Z,8.30
2022-11-04T07:12:10.001Z,9.07
2022-11-04T07:14:39.636Z,9.65
2022-11-04T07:17:06.217Z,6.83
2022-11-04T07:19:40.450Z,6.55
2022-11-04T07:22:10.651Z,8.70
2022-11-04T07:24:54.070Z,9.65
2022-11-04T07:31:01.969Z,8.97
2022-11-04T07:33:51.829Z,6.47
2022-11-04T07:36:25.370Z,7.25
2022-11-04T07:38:52.105Z,6.97
2022-11-04T07:41:18.976Z,8.48
2022-11-04T07:44:13.893Z,9.57
2022-11-04T07:46:51.099Z,8.50
2022-11-04T07:49:38.839Z,8.43
2022-11-04T07:52:14.139Z,7.13
2022-11-04T07:54:40.655Z,9.02
2022-11-04T07:57:08.531Z,7.90
2022-11-04T07:59:42.869Z,8.18
2022-11-04T08:02:12.193Z,9.90
2022-11-04T08:04:39.091Z,7.03
2022-11-04T08:07:10.051Z,8.57
2022-11-04T08:09:39.558Z,7.33
2022-11-04T08:12:09.490Z,7.03
2022-11-04T08:14:45.474Z,7.03
2022-11-04T08:17:12.087Z,7.07
2022-11-04T08:19:39.034Z,7.70
2022-11-04T08:22:05.854Z,8.37
2022-11-04T08:24:35.589Z,8.90
2022-11-04T08:27:02.917Z,8.45
2022-11-04T08:29:29.943Z,6.90
2022-11-04T08:31:56.567Z,7.53
2022-11-04T08:34:23.440Z,8.80
2022-11-04T08:36:50.270Z,6.00
2022-11-04T08:39:16.785Z,6.13
2022-11-04T08:41:45.450Z,7.25
2022-11-04T08:44:18.088Z,8.10
2022-11-04T08:46:51.845Z,10.23
2022-11-04T08:49:21.276Z,6.45
2022-11-04T08:51:59.683Z,8.75
2022-11-04T08:54:27.653Z,8.05
2022-11-04T08:56:54.773Z,5.53
2022-11-04T08:59:21.244Z,8.37
2022-11-04T09:01:52.511Z,9.63
2022-11-04T09:04:20.013Z,8.50
2022-11-04T09:06:46.990Z,8.60
2022-11-04T09:09:41.019Z,10.13
2022-11-04T09:12:11.588Z,11.07
2022-11-04T09:14:38.299Z,9.40
2022-11-04T09:17:05.140Z,10.48
2022-11-04T09:19:40.043Z,10.10
2022-11-04T09:22:06.701Z,9.52
2022-11-04T09:25:18.318Z,11.27
2022-11-04T09:27:45.317Z,11.23
2022-11-04T09:30:15.338Z,8.52
2022-11-04T09:32:42.209Z,10.82
2022-11-04T09:35:27.789Z,11.23
2022-11-04T09:37:57.426Z,8.57
2022-11-04T09:40:43.549Z,11.43
2022-11-04T09:43:39.314Z,12.77
2022-11-04T09:46:11.220Z,12.20
2022-11-04T09:48:45.333Z,11.30
2022-11-04T09:51:32.674Z,9.67
2022-11-04T09:54:05.332Z,10.88
2022-11-04T09:56:43.408Z,12.48
2022-11-04T09:59:15.560Z,13.10
2022-11-04T10:02:10.237Z,15.07
2022-11-04T10:04:59.209Z,13.33
2022-11-04T10:07:50.397Z,15.10
2022-11-04T10:10:58.091Z,9.88
2022-11-04T10:14:01.213Z,9.18
2022-11-04T10:17:07.345Z,13.55
2022-11-04T10:19:56.457Z,14.17
2022-11-04T10:22:35.274Z,14.90
2022-11-04T10:25:15.587Z,14.43
2022-11-04T10:27:45.919Z,16.52
2022-11-04T10:30:19.560Z,12.85
2022-11-04T10:33:12.402Z,13.43
2022-11-04T10:35:47.536Z,15.15
2022-11-04T10:38:24.131Z,14.13
2022-11-04T10:40:53.767Z,12.27
2022-11-04T10:43:31.611Z,12.63
2022-11-04T10:46:10.178Z,14.63
2022-11-04T10:48:45.475Z,14.52
2022-11-04T10:51:11.979Z,15.68
2022-11-04T10:53:38.636Z,13.13
2022-11-04T10:56:17.358Z,13.15
2022-11-04T10:58:47.042Z,14.70
2022-11-04T11:01:30.764Z,13.05
2022-11-04T11:03:58.527Z,15.15
2022-11-04T11:06:33.462Z,15.18
2022-11-04T11:09:18.630Z,14.80
2022-11-04T11:11:48.763Z,12.57
2022-11-04T11:14:18.099Z,12.90
2022-11-04T11:16:45.770Z,13.25
2022-11-04T11:19:12.176Z,14.38
2022-11-04T11:21:50.581Z,16.77
2022-11-04T11:24:30.744Z,15.60
2022-11-04T11:26:59.793Z,12.73
2022-11-04T11:29:30.754Z,12.35
2022-11-04T11:32:00.582Z,13.07
2022-11-04T11:34:32.724Z,16.60
2022-11-04T11:37:03.588Z,15.17
2022-11-04T11:39:32.464Z,15.70
2022-11-04T11:42:02.045Z,14.18
2022-11-04T11:44:38.626Z,14.45
2022-11-04T11:47:07.061Z,11.77
2022-11-04T11:49:36.627Z,13.40
2022-11-04T11:52:31.900Z,13.57
2022-11-04T11:55:19.932Z,13.60
2022-11-04T12:01:22.046Z,10.65
2022-11-04T12:09:45.930Z,12.77
2022-11-04T12:12:18.289Z,9.68
2022-11-04T12:15:08.338Z,10.55
2022-11-04T12:17:52.917Z,9.93
2022-11-04T12:20:41.739Z,13.63
2022-11-04T12:23:37.038Z,8.48
2022-11-04T12:26:36.786Z,8.38
2022-11-04T12:29:34.503Z,8.00
2022-11-04T12:32:10.270Z,10.50
2022-11-04T12:35:03.546Z,6.20
2022-11-04T12:38:02.153Z,7.25
2022-11-04T12:40:34.660Z,8.93
2022-11-04T12:43:19.920Z,10.15
2022-11-04T12:45:49.342Z,8.07
2022-11-04T12:48:30.960Z,9.82
2022-11-04T12:51:34.974Z,6.18
2022-11-04T12:54:21.346Z,8.07
2022-11-04T12:57:08.269Z,6.00
2022-11-04T12:59:56.261Z,7.30
2022-11-04T13:02:25.415Z,5.80
2022-11-04T13:05:09.553Z,5.25
2022-11-04T13:08:08.574Z,6.47
2022-11-04T13:10:53.210Z,7.43
2022-11-04T13:13:24.489Z,7.10
2022-11-04T13:15:57.831Z,9.80
2022-11-04T13:18:28.303Z,7.20
2022-11-04T13:21:14.073Z,6.05
2022-11-04T13:23:50.039Z,5.75
2022-11-04T13:26:18.081Z,4.57
2022-11-04T13:28:56.094Z,6.30
2022-11-04T13:31:44.749Z,5.60
2022-11-04T13:34:23.328Z,4.45
2022-11-04T13:37:06.879Z,8.85
2022-11-04T13:39:39.022Z,6.17
2022-11-04T13:42:39.322Z,5.63
2022-11-04T13:45:14.214Z,5.13
2022-11-04T13:47:54.021Z,1.98
2022-11-04T13:50:36.900Z,1.20
2022-11-04T13:53:05.945Z,1.73
2022-11-04T13:55:35.311Z,1.52
2022-11-04T13:58:06.573Z,2.38
2022-11-04T14:00:34.764Z,2.13
2022-11-04T14:03:27.061Z,1.45
2022-11-04T14:06:06.935Z,1.00
2022-11-04T14:08:34.201Z,0.98
2022-11-04T14:11:04.566Z,1.58
2022-11-04T14:13:34.912Z,1.48
2022-11-04T14:16:12.079Z,2.20
2022-11-04T14:18:46.996Z,1.67
2022-11-04T14:21:22.134Z,0.60
2022-11-04T14:23:54.054Z,0.82
2022-11-04T14:26:30.311Z,1.60
2022-11-04T14:29:07.782Z,1.08
2022-11-04T14:31:37.427Z,0.60
2022-11-04T14:34:05.916Z,8.15
2022-11-04T14:36:40.416Z,1.67
2022-11-04T14:39:12.796Z,2.85
2022-11-04T14:41:52.009Z,1.63
2022-11-04T14:44:32.422Z,3.33
2022-11-04T14:47:03.003Z,1.23
2022-11-04T14:49:39.951Z,1.27
2022-11-04T14:52:16.757Z,4.68
2022-11-04T14:54:43.327Z,1.80
2022-11-04T14:57:19.021Z,3.00
2022-11-04T14:59:46.344Z,1.35
2022-11-04T15:02:25.157Z,2.05
2022-11-04T15:05:02.346Z,1.30
2022-11-04T15:07:38.286Z,1.33
2022-11-04T15:10:22.149Z,3.17
2022-11-04T15:12:51.985Z,2.78
2022-11-04T15:15:33.653Z,1.55
2022-11-04T15:18:17.410Z,1.73
2022-11-04T15:20:50.534Z,2.78
2022-11-04T15:23:26.114Z,2.07
2022-11-04T15:25:52.562Z,3.40
2022-11-04T15:28:25.290Z,2.20
2022-11-04T15:31:20.975Z,2.17
2022-11-04T15:33:54.183Z,1.40
2022-11-04T15:36:23.709Z,3.43
2022-11-04T15:39:03.169Z,1.65
2022-11-04T15:41:50.546Z,1.13
2022-11-04T15:44:23.627Z,1.30
2022-11-04T15:46:55.337Z,4.90
2022-11-04T15:49:32.684Z,2.63
2022-11-04T15:52:08.326Z,1.65
2022-11-04T15:54:38.179Z,4.70
2022-11-04T15:57:12.871Z,2.92
2022-11-04T15:59:44.831Z,2.97
2022-11-04T16:02:48.734Z,2.53
2022-11-04T16:05:15.244Z,3.42
2022-11-04T16:07:52.730Z,3.80
2022-11-04T16:10:37.725Z,3.80
2022-11-04T16:13:24.386Z,1.95
2022-11-04T16:15:57.116Z,1.90
2022-11-04T16:18:26.398Z,4.10
2022-11-04T16:20:54.393Z,4.57
2022-11-04T16:23:24.872Z,3.70
2022-11-04T16:26:04.239Z,3.78
2022-11-04T16:28:34.836Z,3.00
2022-11-04T16:31:04.225Z,5.95
2022-11-04T16:33:30.869Z,3.15
2022-11-04T16:35:57.378Z,4.45
2022-11-04T16:38:23.825Z,4.90
2022-11-04T16:40:50.263Z,10.33
2022-11-04T16:43:20.996Z,6.63
2022-11-04T16:45:53.561Z,9.55
2022-11-04T16:48:21.100Z,13.52
2022-11-04T16:50:48.894Z,8.00
2022-11-04T16:53:15.386Z,7.60
2022-11-04T16:56:08.163Z,6.97
2022-11-04T16:58:34.522Z,5.45
2022-11-04T17:01:05.244Z,5.32
2022-11-04T17:03:32.834Z,4.15
2022-11-04T17:05:59.412Z,3.40
2022-11-04T17:08:26.900Z,3.88
2022-11-04T17:10:54.325Z,3.83
2022-11-04T17:13:20.755Z,4.07
2022-11-04T17:15:47.813Z,3.72
2022-11-04T17:18:16.492Z,2.97
2022-11-04T17:20:50.535Z,3.13
2022-11-04T17:23:17.382Z,3.78
2022-11-04T17:25:44.695Z,3.60
2022-11-04T17:28:11.450Z,4.57
2022-11-04T17:30:37.878Z,5.27
2022-11-04T17:33:08.696Z,3.92
2022-11-04T17:35:37.876Z,4.63
2022-11-04T17:38:04.367Z,4.03
2022-11-04T17:41:00.550Z,3.33
2022-11-04T17:43:45.415Z,3.60
2022-11-04T17:46:31.444Z,3.95
2022-11-04T17:48:58.199Z,4.38
2022-11-04T17:51:25.124Z,4.63
2022-11-04T17:53:51.509Z,4.50
2022-11-04T17:56:20.957Z,2.50
2022-11-04T17:58:48.013Z,4.53
2022-11-04T18:01:16.393Z,6.50
2022-11-04T18:03:43.482Z,4.55
2022-11-04T18:06:10.816Z,2.90
2022-11-04T18:08:37.864Z,3.33
2022-11-04T18:11:07.262Z,4.47
2022-11-04T18:13:34.933Z,4.72
2022-11-04T18:16:14.492Z,5.00
2022-11-04T18:18:40.958Z,5.15
2022-11-04T18:21:08.506Z,5.87
2022-11-04T18:23:35.198Z,3.60
2022-11-04T18:26:02.908Z,3.22
2022-11-04T18:28:29.372Z,4.22
2022-11-04T18:30:55.817Z,4.40
2022-11-04T18:33:22.190Z,5.93
2022-11-04T18:35:48.544Z,6.78
2022-11-04T18:38:14.964Z,4.68
2022-11-04T18:40:41.336Z,4.95
2022-11-04T18:43:09.286Z,5.18
2022-11-04T18:45:36.775Z,4.00
2022-11-04T18:48:03.490Z,5.32
2022-11-04T18:50:30.282Z,3.03
2022-11-04T18:52:56.725Z,5.07
2022-11-04T18:55:23.975Z,4.50
2022-11-04T18:57:54.236Z,7.13
2022-11-04T19:00:20.862Z,6.45
2022-11-04T19:02:47.324Z,5.13
2022-11-04T19:05:14.077Z,7.07
2022-11-04T19:07:41.986Z,6.20
2022-11-04T19:10:08.763Z,6.17
2022-11-04T19:12:53.724Z,6.20
2022-11-04T19:15:20.235Z,4.38
2022-11-04T19:17:46.670Z,5.88
2022-11-04T19:20:13.564Z,4.97
2022-11-04T19:22:40.690Z,6.27
2022-11-04T19:25:07.528Z,7.65
2022-11-04T19:27:33.917Z,6.05
2022-11-04T19:30:00.320Z,6.25
2022-11-04T19:32:26.678Z,6.90
2022-11-04T19:34:53.155Z,6.57
2022-11-04T19:37:19.754Z,8.77
2022-11-04T19:39:46.237Z,10.18
2022-11-04T19:42:31.438Z,7.30
2022-11-04T19:44:57.836Z,9.13
2022-11-04T19:47:24.191Z,7.73
2022-11-04T19:49:50.639Z,9.40
2022-11-04T19:52:17.063Z,5.95
2022-11-04T19:54:43.490Z,9.57
2022-11-04T19:57:09.874Z,16.45
2022-11-04T19:59:36.242Z,15.67
2022-11-04T20:02:02.730Z,24.98
2022-11-04T20:04:29.304Z,22.65
2022-11-04T20:06:55.753Z,16.40
2022-11-04T20:09:22.495Z,17.38
2022-11-04T20:12:07.728Z,15.27
2022-11-04T20:14:34.085Z,12.90
2022-11-04T20:17:00.415Z,14.13
2022-11-04T20:19:26.770Z,16.95
2022-11-04T20:21:53.153Z,15.57
2022-11-04T20:24:19.716Z,13.33
2022-11-04T20:26:49.041Z,11.30
2022-11-04T20:29:18.420Z,9.25
2022-11-04T20:31:44.886Z,9.65
2022-11-04T20:34:12.539Z,11.02
2022-11-04T20:36:39.084Z,7.57
2022-11-04T20:39:12.583Z,9.60
2022-11-04T20:41:40.627Z,6.82
2022-11-04T20:44:07.387Z,6.45
2022-11-04T20:46:34.745Z,8.20
2022-11-04T20:49:02.977Z,7.27
2022-11-04T20:51:31.905Z,7.20
2022-11-04T20:54:00.768Z,7.50
2022-11-04T20:56:29.891Z,9.07
2022-11-04T20:58:59.334Z,7.65
2022-11-04T21:01:29.373Z,8.10
2022-11-04T21:04:08.879Z,7.50
2022-11-04T21:06:39.631Z,8.95
2022-11-04T21:09:08.253Z,5.80
2022-11-04T21:11:35.735Z,6.40
2022-11-04T21:14:03.648Z,8.63
2022-11-04T21:16:30.477Z,7.78
2022-11-04T21:18:57.825Z,8.45
2022-11-04T21:21:27.290Z,10.18
2022-11-04T21:24:01.520Z,9.35
2022-11-04T21:26:30.335Z,5.87
2022-11-04T21:29:01.737Z,8.55
2022-11-04T21:31:29.666Z,10.13
2022-11-04T21:33:56.328Z,11.77
2022-11-04T21:36:23.345Z,10.60
2022-11-04T21:38:50.327Z,9.50
2022-11-04T21:41:22.162Z,9.50
2022-11-04T21:43:53.770Z,9.43
2022-11-04T21:46:20.132Z,10.55
2022-11-04T21:48:46.472Z,9.02
2022-11-04T21:51:16.657Z,8.70
2022-11-04T21:53:43.508Z,8.90
2022-11-04T21:56:13.317Z,8.60
2022-11-04T21:58:40.086Z,8.77
2022-11-04T22:01:07.944Z,8.13
2022-11-04T22:03:34.918Z,11.20
2022-11-04T22:06:06.571Z,8.27
2022-11-04T22:08:34.326Z,7.38
2022-11-04T22:11:30.731Z,7.03
2022-11-04T22:13:59.347Z,7.35
2022-11-04T22:16:27.745Z,7.23
2022-11-04T22:18:56.582Z,7.32
2022-11-04T22:21:24.576Z,4.93
2022-11-04T22:23:51.533Z,5.75
2022-11-04T22:26:44.098Z,5.78
2022-11-04T22:29:10.711Z,9.77
2022-11-04T22:32:03.187Z,6.55
2022-11-04T22:34:52.588Z,7.35
2022-11-04T22:37:18.945Z,6.60
2022-11-04T22:39:55.508Z,5.00
2022-11-04T22:42:22.004Z,6.77
2022-11-04T22:44:48.370Z,7.15
2022-11-04T22:47:14.703Z,7.88
2022-11-04T22:49:41.074Z,9.30
2022-11-04T22:52:11.435Z,11.40
2022-11-04T22:54:37.880Z,7.67
2022-11-04T22:57:04.723Z,8.45
2022-11-04T22:59:54.003Z,6.95
2022-11-04T23:02:20.483Z,5.70
2022-11-04T23:04:47.026Z,5.50
2022-11-04T23:07:17.504Z,4.27
2022-11-04T23:10:02.830Z,7.63
2022-11-04T23:13:01.684Z,7.05
2022-11-04T23:15:46.451Z,8.55
2022-11-04T23:18:32.221Z,5.47
2022-11-04T23:21:16.917Z,4.43
2022-11-04T23:24:18.872Z,4.78
2022-11-04T23:26:46.655Z,3.25
2022-11-04T23:29:33.144Z,5.80
2022-11-04T23:32:05.759Z,5.68
2022-11-04T23:35:00.839Z,4.07
2022-11-04T23:38:02.615Z,6.15
2022-11-04T23:40:30.890Z,6.57
2022-11-04T23:43:09.961Z,5.30
2022-11-04T23:46:02.420Z,5.93
2022-11-04T23:48:47.545Z,3.27
2022-11-04T23:51:32.323Z,3.35
2022-11-04T23:54:17.450Z,3.50
2022-11-04T23:57:02.744Z,3.38
2022-11-04T23:59:47.806Z,4.38
